createdAt,value
2018-05-06T02:44:55.372Z,65.00
2018-05-06T02:47:25.867Z,64.90
2018-05-06T02:49:55.655Z,65.60
2018-05-06T02:52:25.400Z,63.90
2018-05-06T02:54:55.212Z,63.60
2018-05-06T02:57:24.971Z,63.40
2018-05-06T02:59:55.030Z,64.00
2018-05-06T03:02:24.803Z,63.80
2018-05-06T03:04:56.104Z,63.00
2018-05-06T03:07:25.833Z,62.90
2018-05-06T03:09:56.386Z,62.60
2018-05-06T03:12:26.183Z,62.50
2018-05-06T03:14:56.767Z,63.80
2018-05-06T03:17:26.532Z,63.80
2018-05-06T03:19:56.264Z,64.50
2018-05-06T03:22:26.194Z,65.30
2018-05-06T03:24:55.999Z,65.30
2018-05-06T03:27:25.770Z,65.70
2018-05-06T03:29:55.758Z,65.90
2018-05-06T03:32:26.782Z,67.00
2018-05-06T03:34:56.562Z,67.00
2018-05-06T03:37:26.347Z,67.70
2018-05-06T03:39:56.629Z,68.50
2018-05-06T03:42:27.529Z,68.90
2018-05-06T03:44:57.252Z,69.00
2018-05-06T03:47:27.952Z,68.40
2018-05-06T03:49:58.451Z,67.00
2018-05-06T03:52:28.213Z,67.00
2018-05-06T03:54:58.808Z,64.80
2018-05-06T03:57:40.383Z,65.80
2018-05-06T04:00:21.428Z,65.90
2018-05-06T04:02:51.212Z,66.00
2018-05-06T04:05:21.004Z,67.00
2018-05-06T04:07:51.555Z,68.60
2018-05-06T04:10:22.247Z,68.60
2018-05-06T04:12:52.004Z,69.00
2018-05-06T04:15:22.240Z,70.10
2018-05-06T04:17:51.984Z,70.30
2018-05-06T04:20:22.380Z,70.40
2018-05-06T04:22:52.170Z,70.10
2018-05-06T04:25:23.063Z,68.00
2018-05-06T04:27:52.819Z,67.80
2018-05-06T04:30:22.748Z,67.40
2018-05-06T04:32:52.498Z,66.90
2018-05-06T04:35:22.328Z,66.60
2018-05-06T04:37:52.849Z,65.60
2018-05-06T04:40:24.326Z,66.00
2018-05-06T04:42:55.010Z,65.90
2018-05-06T04:45:24.774Z,67.10
2018-05-06T04:47:55.265Z,67.00
2018-05-06T04:50:25.031Z,66.30
2018-05-06T04:52:54.807Z,64.50
2018-05-06T04:55:25.524Z,61.60
2018-05-06T04:57:56.053Z,61.80
2018-05-06T05:00:25.810Z,61.70
2018-05-06T05:02:55.628Z,60.30
2018-05-06T05:05:25.340Z,59.50
2018-05-06T05:07:55.084Z,59.30
2018-05-06T05:10:25.977Z,59.30
2018-05-06T05:12:55.778Z,59.00
2018-05-06T05:15:26.639Z,58.80
2018-05-06T05:17:56.407Z,58.00
2018-05-06T05:20:27.132Z,57.60
2018-05-06T05:22:57.648Z,58.10
2018-05-06T05:25:28.267Z,58.10
2018-05-06T05:27:58.068Z,59.20
2018-05-06T05:30:27.824Z,59.60
2018-05-06T05:32:58.343Z,62.80
2018-05-06T05:35:28.142Z,62.80
2018-05-06T05:37:57.896Z,63.60
2018-05-06T05:40:27.640Z,63.90
2018-05-06T05:42:58.248Z,64.40
2018-05-06T05:45:28.178Z,64.70
2018-05-06T05:47:58.383Z,64.60
2018-05-06T05:50:29.255Z,64.30
2018-05-06T05:52:59.617Z,64.70
2018-05-06T05:55:31.051Z,66.50
2018-05-06T05:58:01.591Z,66.40
2018-05-06T06:00:32.091Z,66.40
2018-05-06T06:03:01.835Z,66.30
2018-05-06T06:05:32.356Z,66.50
2018-05-06T06:08:03.046Z,66.60
2018-05-06T06:10:32.811Z,66.60
2018-05-06T06:13:02.562Z,66.70
2018-05-06T06:15:32.331Z,67.20
2018-05-06T06:18:02.098Z,67.00
2018-05-06T06:20:32.687Z,66.20
2018-05-06T06:23:03.236Z,65.40
2018-05-06T06:25:33.015Z,65.30
2018-05-06T06:28:03.527Z,64.10
2018-05-06T06:30:34.752Z,63.60
2018-05-06T06:33:05.459Z,63.50
2018-05-06T06:35:36.428Z,62.60
2018-05-06T06:38:06.261Z,62.60
2018-05-06T06:40:36.784Z,61.20
2018-05-06T06:43:07.295Z,59.80
2018-05-06T06:45:37.066Z,59.80
2018-05-06T06:48:06.860Z,59.40
2018-05-06T06:50:37.411Z,59.00
2018-05-06T06:53:07.183Z,58.90
2018-05-06T06:55:37.865Z,58.90
2018-05-06T06:58:08.408Z,58.90
2018-05-06T07:00:39.184Z,58.80
2018-05-06T07:03:09.706Z,58.30
2018-05-06T07:05:40.258Z,58.20
2018-05-06T07:08:10.013Z,58.20
2018-05-06T07:10:39.763Z,57.90
2018-05-06T07:13:10.285Z,56.10
2018-05-06T07:15:40.795Z,54.20
2018-05-06T07:18:10.563Z,54.20
2018-05-06T07:20:40.306Z,53.80
2018-05-06T07:23:10.088Z,53.20
2018-05-06T07:25:39.835Z,52.40
2018-05-06T07:28:09.603Z,52.40
2018-05-06T07:30:39.406Z,52.20
2018-05-06T07:33:09.177Z,52.10
2018-05-06T07:35:39.145Z,52.50
2018-05-06T07:38:09.906Z,52.00
2018-05-06T07:40:39.652Z,51.90
2018-05-06T07:43:10.169Z,51.50
2018-05-06T07:45:40.728Z,51.50
2018-05-06T07:48:10.492Z,51.20
2018-05-06T07:50:40.248Z,51.50
2018-05-06T07:53:09.969Z,51.20
2018-05-06T07:55:39.808Z,51.30
2018-05-06T07:58:09.937Z,51.60
2018-05-06T08:00:39.690Z,51.30
2018-05-06T08:03:11.115Z,50.80
2018-05-06T08:05:40.874Z,50.80
2018-05-06T08:08:10.635Z,50.60
2018-05-06T08:10:40.493Z,50.90
2018-05-06T08:13:11.469Z,51.30
2018-05-06T08:15:41.465Z,51.30
2018-05-06T08:18:11.240Z,51.30
2018-05-06T08:20:41.870Z,51.40
2018-05-06T08:23:12.360Z,51.50
2018-05-06T08:25:42.139Z,51.50
2018-05-06T08:28:11.871Z,51.60
2018-05-06T08:30:41.648Z,51.60
2018-05-06T08:33:12.390Z,51.70
2018-05-06T08:35:42.108Z,51.90
2018-05-06T08:38:12.811Z,51.90
2018-05-06T08:40:43.314Z,51.50
2018-05-06T08:43:13.045Z,51.50
2018-05-06T08:45:43.613Z,50.20
2018-05-06T08:48:13.359Z,50.10
2018-05-06T08:50:43.324Z,50.20
2018-05-06T08:53:13.079Z,50.10
2018-05-06T08:55:43.808Z,49.70
2018-05-06T08:58:13.566Z,49.70
2018-05-06T09:00:44.059Z,50.00
2018-05-06T09:03:14.773Z,50.00
2018-05-06T09:05:44.579Z,50.00
2018-05-06T09:08:14.318Z,49.90
2018-05-06T09:10:44.234Z,49.70
2018-05-06T09:13:14.066Z,49.90
2018-05-06T09:15:45.012Z,50.00
2018-05-06T09:18:15.559Z,50.20
2018-05-06T09:20:46.546Z,50.20
2018-05-06T09:23:17.141Z,50.10
2018-05-06T09:25:46.887Z,50.10
2018-05-06T09:28:16.630Z,50.30
2018-05-06T09:30:48.280Z,51.10
2018-05-06T09:33:19.629Z,51.60
2018-05-06T09:35:50.174Z,52.00
2018-05-06T09:38:20.002Z,52.00
2018-05-06T09:40:51.088Z,52.70
2018-05-06T09:43:20.860Z,53.30
2018-05-06T09:45:50.700Z,53.70
2018-05-06T09:48:20.441Z,54.30
2018-05-06T09:50:51.011Z,54.90
2018-05-06T09:53:20.768Z,54.80
2018-05-06T09:55:50.516Z,55.30
2018-05-06T09:58:20.279Z,55.70
2018-05-06T10:00:50.084Z,56.10
2018-05-06T10:03:19.857Z,56.60
2018-05-06T10:05:50.371Z,56.90
2018-05-06T10:08:20.295Z,57.20
2018-05-06T10:10:51.083Z,57.30
2018-05-06T10:13:20.960Z,57.70
2018-05-06T10:15:50.743Z,57.40
2018-05-06T10:18:21.354Z,57.60
2018-05-06T10:20:52.104Z,58.10
2018-05-06T10:23:22.663Z,58.20
2018-05-06T10:25:52.447Z,58.20
2018-05-06T10:28:22.944Z,58.70
2018-05-06T10:30:52.844Z,58.70
2018-05-06T10:33:22.568Z,58.80
2018-05-06T10:35:52.326Z,59.00
2018-05-06T10:38:22.401Z,59.20
2018-05-06T10:40:53.803Z,59.30
2018-05-06T10:43:23.524Z,59.30
2018-05-06T10:45:53.335Z,59.20
2018-05-06T10:48:23.138Z,59.40
2018-05-06T10:50:52.856Z,59.50
2018-05-06T10:53:23.520Z,59.80
2018-05-06T10:55:53.290Z,59.70
2018-05-06T10:58:23.047Z,59.60
2018-05-06T11:00:53.425Z,59.60
2018-05-06T11:03:23.158Z,59.70
2018-05-06T11:05:52.953Z,59.70
2018-05-06T11:08:23.012Z,59.80
2018-05-06T11:10:52.783Z,59.80
2018-05-06T11:13:22.539Z,60.00
2018-05-06T11:15:52.307Z,60.00
2018-05-06T11:18:22.106Z,60.40
2018-05-06T11:20:51.919Z,60.90
2018-05-06T11:23:21.717Z,61.30
2018-05-06T11:25:51.457Z,61.60
2018-05-06T11:28:21.250Z,61.90
2018-05-06T11:30:51.932Z,61.80
2018-05-06T11:33:21.744Z,61.70
2018-05-06T11:35:51.532Z,62.10
2018-05-06T11:38:21.360Z,62.00
2018-05-06T11:40:51.443Z,62.00
2018-05-06T11:43:22.412Z,62.40
2018-05-06T11:45:52.164Z,62.30
2018-05-06T11:48:22.696Z,62.90
2018-05-06T11:50:53.236Z,62.90
2018-05-06T11:53:24.670Z,62.90
2018-05-06T11:55:55.232Z,63.50
2018-05-06T11:58:25.474Z,63.50
2018-05-06T12:00:55.320Z,62.50
2018-05-06T12:03:26.402Z,62.90
2018-05-06T12:05:56.185Z,62.80
2018-05-06T12:08:26.742Z,62.50
2018-05-06T12:10:56.489Z,62.40
2018-05-06T12:13:26.255Z,62.30
2018-05-06T12:15:56.106Z,62.50
2018-05-06T12:18:25.906Z,62.50
2018-05-06T12:20:55.721Z,63.40
2018-05-06T12:23:26.513Z,62.60
2018-05-06T12:29:27.528Z,62.70
2018-05-06T12:31:57.276Z,63.10
2018-05-06T12:34:27.857Z,64.00
2018-05-06T12:36:58.468Z,64.00
2018-05-06T12:39:28.255Z,64.00
2018-05-06T12:41:58.323Z,64.40
2018-05-06T12:44:28.074Z,63.90
2018-05-06T12:46:58.838Z,64.00
2018-05-06T12:49:30.596Z,63.90
2018-05-06T12:52:00.355Z,64.10
2018-05-06T12:54:30.152Z,64.10
2018-05-06T12:56:59.950Z,64.60
2018-05-06T12:59:29.757Z,64.60
2018-05-06T13:01:59.565Z,64.90
2018-05-06T13:04:29.368Z,64.90
2018-05-06T13:06:59.171Z,64.50
2018-05-06T13:09:28.959Z,64.30
2018-05-06T13:12:00.560Z,64.50
2018-05-06T13:14:30.308Z,64.40
2018-05-06T13:17:00.090Z,64.60
2018-05-06T13:19:29.930Z,64.80
2018-05-06T13:21:59.740Z,65.00
2018-05-06T13:24:29.477Z,65.10
2018-05-06T13:27:00.111Z,65.60
2018-05-06T13:29:30.710Z,65.60
2018-05-06T13:32:00.600Z,65.60
2018-05-06T13:34:30.950Z,65.40
2018-05-06T13:37:00.720Z,65.60
2018-05-06T13:39:30.498Z,65.40
2018-05-06T13:42:01.019Z,65.50
2018-05-06T13:44:32.891Z,65.80
2018-05-06T13:47:03.642Z,65.90
2018-05-06T13:49:33.446Z,65.90
2018-05-06T13:52:03.233Z,66.30
2018-05-06T13:54:33.041Z,66.40
2018-05-06T13:57:02.967Z,66.60
2018-05-06T13:59:33.505Z,67.30
2018-05-06T14:02:03.998Z,67.60
2018-05-06T14:04:33.749Z,67.50
2018-05-06T14:07:04.260Z,68.00
2018-05-06T14:09:35.738Z,67.80
2018-05-06T14:12:05.555Z,67.70
2018-05-06T14:14:35.312Z,67.90
2018-05-06T14:17:05.076Z,68.00
2018-05-06T14:19:34.849Z,68.00
2018-05-06T14:22:04.603Z,68.20
2018-05-06T14:24:34.390Z,68.40
2018-05-06T14:27:04.958Z,68.40
2018-05-06T14:29:34.778Z,68.30
2018-05-06T14:32:04.603Z,68.40
2018-05-06T14:34:34.401Z,68.30
2018-05-06T14:37:04.222Z,68.00
2018-05-06T14:39:34.135Z,68.00
2018-05-06T14:42:03.901Z,68.10
2018-05-06T14:44:34.436Z,67.90
2018-05-06T14:47:15.504Z,67.80
2018-05-06T14:49:46.036Z,68.10
2018-05-06T14:52:16.553Z,67.90
2018-05-06T14:54:47.118Z,67.90
2018-05-06T14:57:16.879Z,67.90
2018-05-06T14:59:46.875Z,68.00
2018-05-06T15:02:16.681Z,68.20
2018-05-06T15:04:46.457Z,68.30
2018-05-06T15:07:16.394Z,68.30
2018-05-06T15:09:46.173Z,68.50
2018-05-06T15:12:16.984Z,68.40
2018-05-06T15:14:46.755Z,68.70
2018-05-06T15:17:16.560Z,69.10
2018-05-06T15:19:47.383Z,69.20
2018-05-06T15:22:17.108Z,69.40
2018-05-06T15:24:48.412Z,69.60
2018-05-06T15:27:18.983Z,69.80
2018-05-06T15:29:48.736Z,69.70
2018-05-06T15:32:19.293Z,70.10
2018-05-06T15:34:49.807Z,70.50
2018-05-06T15:37:20.326Z,70.60
2018-05-06T15:39:50.150Z,70.60
2018-05-06T15:42:20.782Z,70.80
2018-05-06T15:44:51.360Z,70.80
2018-05-06T15:47:21.158Z,70.80
2018-05-06T15:49:51.759Z,70.80
2018-05-06T15:52:22.391Z,70.90
2018-05-06T15:54:52.916Z,71.10
2018-05-06T15:57:23.480Z,71.20
2018-05-06T15:59:53.269Z,71.10
2018-05-06T16:05:15.626Z,71.30
2018-05-06T16:07:46.221Z,71.50
2018-05-06T16:10:16.071Z,71.50
2018-05-06T16:12:45.883Z,71.20
2018-05-06T16:15:17.079Z,71.60
2018-05-06T16:17:47.002Z,71.60
2018-05-06T16:20:16.876Z,71.80
2018-05-06T16:22:46.633Z,71.80
2018-05-06T16:25:18.184Z,71.90
2018-05-06T16:27:47.989Z,71.80
2018-05-06T16:30:17.763Z,71.90
2018-05-06T16:32:47.486Z,72.00
2018-05-06T16:35:17.236Z,72.70
2018-05-06T16:37:47.201Z,72.00
2018-05-06T16:40:17.521Z,72.30
2018-05-06T16:42:47.632Z,72.60
2018-05-06T16:45:18.658Z,72.80
2018-05-06T16:47:49.293Z,72.80
2018-05-06T16:50:19.094Z,73.60
2018-05-06T16:52:49.661Z,73.10
2018-05-06T16:55:19.431Z,73.00
2018-05-06T16:57:49.988Z,72.90
2018-05-06T17:00:19.803Z,72.90
2018-05-06T17:02:49.566Z,72.90
2018-05-06T17:05:19.370Z,72.90
2018-05-06T17:07:50.136Z,72.70
2018-05-06T17:10:20.827Z,73.00
2018-05-06T17:12:50.694Z,72.90
2018-05-06T17:15:20.455Z,73.10
2018-05-06T17:17:50.262Z,73.00
2018-05-06T17:20:20.062Z,72.90
2018-05-06T17:22:49.838Z,73.00
2018-05-06T17:25:20.610Z,73.30
2018-05-06T17:27:50.597Z,73.20
2018-05-06T17:30:21.000Z,73.10
2018-05-06T17:32:51.508Z,72.50
2018-05-06T17:35:21.297Z,72.30
2018-05-06T17:37:51.075Z,72.30
2018-05-06T17:40:20.886Z,72.20
2018-05-06T17:42:50.669Z,72.20
2018-05-06T17:45:21.452Z,71.80
2018-05-06T17:47:51.250Z,71.60
2018-05-06T17:50:21.063Z,71.80
2018-05-06T17:52:51.798Z,71.60
2018-05-06T17:55:21.600Z,71.60
2018-05-06T17:57:51.366Z,71.40
2018-05-06T18:00:21.882Z,71.40
2018-05-06T18:02:51.689Z,71.60
2018-05-06T18:05:22.386Z,71.90
2018-05-06T18:07:52.293Z,71.90
2018-05-06T18:10:22.157Z,71.80
2018-05-06T18:12:53.054Z,71.60
2018-05-06T18:15:22.862Z,71.60
2018-05-06T18:17:53.764Z,71.30
2018-05-06T18:20:23.516Z,71.30
2018-05-06T18:22:53.401Z,71.50
2018-05-06T18:25:23.933Z,72.30
2018-05-06T18:27:54.466Z,72.50
2018-05-06T18:30:25.995Z,72.70
2018-05-06T18:32:55.777Z,72.70
2018-05-06T18:35:25.562Z,73.10
2018-05-06T18:37:55.323Z,73.30
2018-05-06T18:40:25.222Z,73.50
2018-05-06T18:42:55.199Z,73.60
2018-05-06T18:45:24.969Z,73.90
2018-05-06T18:47:54.739Z,74.00
2018-05-06T18:50:24.489Z,74.40
2018-05-06T18:52:55.000Z,74.70
2018-05-06T18:55:24.805Z,74.60
2018-05-06T18:57:54.638Z,74.70
2018-05-06T19:00:25.726Z,74.80
2018-05-06T19:02:55.516Z,74.90
2018-05-06T19:05:25.334Z,75.10
2018-05-06T19:07:56.086Z,75.30
2018-05-06T19:10:26.716Z,75.30
2018-05-06T19:12:56.491Z,75.50
2018-05-06T19:15:27.952Z,75.90
2018-05-06T19:17:58.528Z,75.90
2018-05-06T19:20:28.297Z,75.80
2018-05-06T19:22:58.826Z,76.10
2018-05-06T19:25:29.354Z,76.20
2018-05-06T19:27:59.906Z,76.20
2018-05-06T19:30:29.732Z,76.20
2018-05-06T19:32:59.572Z,76.20
2018-05-06T19:35:29.687Z,76.40
2018-05-06T19:37:59.454Z,76.70
2018-05-06T19:40:29.230Z,76.90
2018-05-06T19:42:58.990Z,77.00
2018-05-06T19:45:30.043Z,77.00
2018-05-06T19:47:59.814Z,77.00
2018-05-06T19:50:30.346Z,77.00
2018-05-06T19:53:00.917Z,77.20
2018-05-06T19:55:30.726Z,77.10
2018-05-06T19:58:00.494Z,77.20
2018-05-06T20:00:31.060Z,77.20
2018-05-06T20:03:01.712Z,77.20
2018-05-06T20:05:31.476Z,77.30
2018-05-06T20:08:02.084Z,77.80
2018-05-06T20:10:32.654Z,77.00
2018-05-06T20:13:02.474Z,76.90
2018-05-06T20:15:32.254Z,76.80
2018-05-06T20:18:02.800Z,76.80
2018-05-06T20:20:32.634Z,76.80
2018-05-06T20:23:02.557Z,76.70
2018-05-06T20:25:32.386Z,76.90
2018-05-06T20:28:02.152Z,77.20
2018-05-06T20:30:31.953Z,77.20
2018-05-06T20:33:01.738Z,77.20
2018-05-06T20:35:31.510Z,76.80
2018-05-06T20:38:01.251Z,76.80
2018-05-06T20:40:31.027Z,76.60
2018-05-06T20:43:00.796Z,76.40
2018-05-06T20:45:31.308Z,76.10
2018-05-06T20:48:01.142Z,76.10
2018-05-06T20:50:31.690Z,76.10
2018-05-06T20:53:01.436Z,76.10
2018-05-06T20:55:31.245Z,76.20
2018-05-06T20:58:01.018Z,76.30
2018-05-06T21:00:31.073Z,76.40
2018-05-06T21:03:01.936Z,76.80
2018-05-06T21:05:31.685Z,76.80
2018-05-06T21:08:01.461Z,77.00
2018-05-06T21:10:31.485Z,76.90
2018-05-06T21:13:01.542Z,76.90
2018-05-06T21:15:31.682Z,77.00
2018-05-06T21:18:02.721Z,77.10
2018-05-06T21:20:33.284Z,77.60
2018-05-06T21:23:03.059Z,77.50
2018-05-06T21:25:32.864Z,78.00
2018-05-06T21:28:02.669Z,78.30
2018-05-06T21:30:32.558Z,78.30
2018-05-06T21:33:03.279Z,78.40
2018-05-06T21:35:33.785Z,78.40
2018-05-06T21:38:03.524Z,78.30
2018-05-06T21:40:34.290Z,78.40
2018-05-06T21:43:04.082Z,78.40
2018-05-06T21:45:34.693Z,78.40
2018-05-06T21:48:05.229Z,78.60
2018-05-06T21:50:35.781Z,78.60
2018-05-06T21:53:05.647Z,78.50
2018-05-06T21:55:35.515Z,78.50
2018-05-06T21:58:05.290Z,78.40
2018-05-06T22:00:35.854Z,78.50
2018-05-06T22:03:05.747Z,78.40
2018-05-06T22:05:36.284Z,78.60
2018-05-06T22:08:07.046Z,78.60
2018-05-06T22:10:37.850Z,78.60
2018-05-06T22:13:08.530Z,78.50
2018-05-06T22:15:38.634Z,78.50
2018-05-06T22:18:08.394Z,78.40
2018-05-06T22:20:38.226Z,78.50
2018-05-06T22:23:07.987Z,78.60
2018-05-06T22:25:37.766Z,78.80
2018-05-06T22:28:08.399Z,78.70
2018-05-06T22:30:38.283Z,78.90
2018-05-06T22:33:09.746Z,79.10
2018-05-06T22:35:39.696Z,79.00
2018-05-06T22:38:09.505Z,79.20
2018-05-06T22:40:39.279Z,79.40
2018-05-06T22:43:09.038Z,79.40
2018-05-06T22:45:38.899Z,79.40
2018-05-06T22:48:09.399Z,79.40
2018-05-06T22:50:39.184Z,79.30
2018-05-06T22:53:08.991Z,79.40
2018-05-06T22:55:38.718Z,79.50
2018-05-06T22:58:08.500Z,79.50
2018-05-06T23:00:38.329Z,79.60
2018-05-06T23:03:08.131Z,79.80
2018-05-06T23:05:37.973Z,79.90
2018-05-06T23:08:08.692Z,79.80
2018-05-06T23:10:38.477Z,79.80
2018-05-06T23:13:08.237Z,79.70
2018-05-06T23:15:39.122Z,79.70
2018-05-06T23:18:08.907Z,79.60
2018-05-06T23:20:39.899Z,79.60
2018-05-06T23:23:09.645Z,79.60
2018-05-06T23:25:39.409Z,79.70
2018-05-06T23:28:09.172Z,79.70
2018-05-06T23:30:39.717Z,79.90
2018-05-06T23:33:10.216Z,79.70
2018-05-06T23:35:40.100Z,79.70
2018-05-06T23:38:09.911Z,79.80
2018-05-06T23:40:39.649Z,79.90
2018-05-06T23:43:09.562Z,80.10
2018-05-06T23:45:39.627Z,80.20
2018-05-06T23:48:09.737Z,80.30
2018-05-06T23:50:40.817Z,80.00
2018-05-06T23:53:10.604Z,80.00
2018-05-06T23:55:40.402Z,80.00
2018-05-06T23:58:10.247Z,79.90
